createdAt,value
2022-08-03T00:02:16.711Z,3.30
2022-08-03T00:04:43.959Z,3.10
2022-08-03T00:07:10.757Z,3.20
2022-08-03T00:09:37.565Z,3.53
2022-08-03T00:12:04.474Z,3.13
2022-08-03T00:14:31.285Z,3.73
2022-08-03T00:16:58.217Z,3.20
2022-08-03T00:19:25.101Z,3.13
2022-08-03T00:21:52.021Z,3.00
2022-08-03T00:24:18.916Z,3.23
2022-08-03T00:26:45.764Z,3.77
2022-08-03T00:29:12.989Z,3.20
2022-08-03T00:31:52.601Z,3.47
2022-08-03T00:34:36.290Z,3.17
2022-08-03T00:37:13.389Z,3.53
2022-08-03T00:39:40.883Z,3.40
2022-08-03T00:42:07.781Z,3.07
2022-08-03T00:44:41.456Z,3.23
2022-08-03T00:47:10.320Z,3.23
2022-08-03T00:49:37.562Z,3.33
2022-08-03T00:52:09.555Z,3.07
2022-08-03T00:54:37.816Z,3.47
2022-08-03T00:57:04.825Z,3.17
2022-08-03T00:59:31.715Z,3.43
2022-08-03T01:01:58.501Z,3.20
2022-08-03T01:04:25.255Z,3.13
2022-08-03T01:07:06.638Z,3.90
2022-08-03T01:09:37.888Z,3.30
2022-08-03T01:12:17.773Z,3.50
2022-08-03T01:15:05.021Z,3.77
2022-08-03T01:17:34.028Z,4.00
2022-08-03T01:20:02.570Z,4.03
2022-08-03T01:22:35.528Z,3.97
2022-08-03T01:25:02.315Z,3.60
2022-08-03T01:27:47.998Z,3.97
2022-08-03T01:30:14.965Z,3.73
2022-08-03T01:33:01.846Z,3.50
2022-08-03T01:35:38.550Z,3.50
2022-08-03T01:38:09.803Z,3.90
2022-08-03T01:40:37.907Z,3.77
2022-08-03T01:43:06.359Z,4.30
2022-08-03T01:45:34.443Z,3.73
2022-08-03T01:48:01.833Z,3.20
2022-08-03T01:50:29.539Z,3.03
2022-08-03T01:52:57.729Z,3.43
2022-08-03T01:55:28.250Z,3.73
2022-08-03T01:58:06.268Z,3.43
2022-08-03T02:00:35.457Z,3.70
2022-08-03T02:03:03.331Z,4.13
2022-08-03T02:05:31.634Z,3.20
2022-08-03T02:07:59.103Z,3.97
2022-08-03T02:10:35.172Z,4.20
2022-08-03T02:13:05.089Z,3.63
2022-08-03T02:15:32.700Z,4.17
2022-08-03T02:18:00.233Z,4.30
2022-08-03T02:20:27.306Z,3.73
2022-08-03T02:22:54.277Z,3.97
2022-08-03T02:25:21.086Z,4.20
2022-08-03T02:27:56.438Z,3.67
2022-08-03T02:30:27.954Z,4.80
2022-08-03T02:32:57.041Z,4.37
2022-08-03T02:35:26.265Z,4.30
2022-08-03T02:37:56.001Z,4.20
2022-08-03T02:40:23.460Z,4.37
2022-08-03T02:42:53.319Z,4.43
2022-08-03T02:45:21.062Z,4.17
2022-08-03T02:47:54.329Z,3.63
2022-08-03T02:50:23.054Z,4.30
2022-08-03T02:52:51.046Z,4.23
2022-08-03T02:55:19.660Z,4.53
2022-08-03T02:57:47.313Z,4.37
2022-08-03T03:00:19.377Z,4.30
2022-08-03T03:02:54.933Z,4.40
2022-08-03T03:05:55.306Z,3.83
2022-08-03T03:08:18.068Z,4.20
2022-08-03T03:10:47.620Z,4.33
2022-08-03T03:13:15.596Z,4.43
2022-08-03T03:15:43.357Z,3.50
2022-08-03T03:18:10.601Z,3.50
2022-08-03T03:20:38.570Z,3.70
2022-08-03T03:23:05.860Z,3.93
2022-08-03T03:25:33.277Z,4.30
2022-08-03T03:28:00.627Z,3.40
2022-08-03T03:30:28.320Z,4.00
2022-08-03T03:32:57.790Z,3.97
2022-08-03T03:35:25.146Z,3.70
2022-08-03T03:37:52.129Z,3.77
2022-08-03T03:40:19.495Z,4.60
2022-08-03T03:42:46.371Z,3.73
2022-08-03T03:45:13.231Z,3.70
2022-08-03T03:47:40.076Z,3.93
2022-08-03T03:50:07.142Z,4.17
2022-08-03T03:52:34.359Z,4.57
2022-08-03T03:55:01.876Z,5.00
2022-08-03T03:57:29.464Z,4.63
2022-08-03T03:59:56.449Z,4.83
2022-08-03T04:02:23.473Z,4.67
2022-08-03T04:05:08.880Z,5.07
2022-08-03T04:08:01.981Z,4.67
2022-08-03T04:10:48.402Z,4.70
2022-08-03T04:13:16.781Z,4.80
2022-08-03T04:15:43.793Z,4.70
2022-08-03T04:18:12.695Z,4.00
2022-08-03T04:20:40.645Z,4.20
2022-08-03T04:23:13.726Z,4.27
2022-08-03T04:25:43.208Z,4.27
2022-08-03T04:28:30.945Z,4.17
2022-08-03T04:30:58.260Z,3.97
2022-08-03T04:33:29.218Z,4.13
2022-08-03T04:36:01.146Z,4.00
2022-08-03T04:38:29.442Z,3.90
2022-08-03T04:40:56.636Z,4.33
2022-08-03T04:43:24.301Z,3.70
2022-08-03T04:45:51.336Z,3.93
2022-08-03T04:48:19.980Z,3.70
2022-08-03T04:50:47.535Z,4.53
2022-08-03T04:53:14.495Z,4.53
2022-08-03T04:55:41.324Z,4.57
2022-08-03T04:58:08.417Z,4.97
2022-08-03T05:00:35.257Z,4.60
2022-08-03T05:03:02.373Z,4.40
2022-08-03T05:05:37.831Z,5.70
2022-08-03T05:08:16.793Z,4.82
2022-08-03T05:10:47.775Z,5.32
2022-08-03T05:13:14.740Z,5.38
2022-08-03T05:15:43.081Z,4.60
2022-08-03T05:18:13.882Z,4.85
2022-08-03T05:20:41.399Z,4.57
2022-08-03T05:23:08.311Z,4.25
2022-08-03T05:25:35.154Z,4.93
2022-08-03T05:28:01.967Z,4.72
2022-08-03T05:30:33.444Z,4.57
2022-08-03T05:33:04.325Z,5.07
2022-08-03T05:36:00.983Z,4.82
2022-08-03T05:38:24.003Z,5.00
2022-08-03T05:40:57.561Z,4.30
2022-08-03T05:43:42.307Z,4.53
2022-08-03T05:46:12.820Z,4.18
2022-08-03T05:48:40.166Z,5.00
2022-08-03T05:51:11.012Z,4.60
2022-08-03T05:53:38.367Z,5.15
2022-08-03T05:56:14.188Z,4.82
2022-08-03T05:58:47.131Z,4.63
2022-08-03T06:01:15.374Z,5.00
2022-08-03T06:03:42.310Z,4.90
2022-08-03T06:06:11.613Z,4.97
2022-08-03T06:08:38.942Z,4.55
2022-08-03T06:11:05.776Z,5.40
2022-08-03T06:13:32.896Z,4.28
2022-08-03T06:15:59.848Z,4.68
2022-08-03T06:18:26.731Z,5.07
2022-08-03T06:20:54.033Z,4.30
2022-08-03T06:23:22.202Z,4.60
2022-08-03T06:25:49.069Z,4.28
2022-08-03T06:31:03.571Z,4.53
2022-08-03T06:34:30.588Z,4.82
2022-08-03T06:36:20.383Z,4.85
2022-08-03T06:38:47.268Z,4.13
2022-08-03T06:41:14.142Z,4.70
2022-08-03T06:44:02.562Z,5.13
2022-08-03T06:46:27.729Z,4.50
2022-08-03T06:48:56.599Z,4.80
2022-08-03T06:52:06.154Z,4.25
2022-08-03T06:54:11.020Z,4.22
2022-08-03T06:56:37.890Z,4.73
2022-08-03T06:59:04.818Z,4.70
2022-08-03T07:01:31.619Z,4.23
2022-08-03T07:03:58.705Z,4.10
2022-08-03T07:06:25.598Z,4.40
2022-08-03T07:08:56.499Z,4.23
2022-08-03T07:11:25.808Z,4.00
2022-08-03T07:13:52.672Z,4.17
2022-08-03T07:16:19.495Z,4.03
2022-08-03T07:18:46.371Z,4.00
2022-08-03T07:21:13.280Z,3.90
2022-08-03T07:23:40.107Z,4.03
2022-08-03T07:26:06.926Z,4.10
2022-08-03T07:28:33.846Z,4.03
2022-08-03T07:31:00.732Z,3.77
2022-08-03T07:33:27.783Z,3.83
2022-08-03T07:35:54.691Z,3.70
2022-08-03T07:38:21.616Z,3.70
2022-08-03T07:40:48.476Z,4.13
2022-08-03T07:43:15.352Z,3.60
2022-08-03T07:45:42.115Z,3.63
2022-08-03T07:48:12.348Z,3.50
2022-08-03T07:50:39.552Z,3.40
2022-08-03T07:53:06.449Z,3.10
2022-08-03T07:55:33.416Z,3.33
2022-08-03T07:58:01.340Z,3.50
2022-08-03T08:00:28.601Z,3.57
2022-08-03T08:02:55.520Z,3.60
2022-08-03T08:05:23.884Z,3.47
2022-08-03T08:07:51.888Z,3.33
2022-08-03T08:10:18.851Z,3.20
2022-08-03T08:12:46.110Z,2.90
2022-08-03T08:15:12.989Z,3.00
2022-08-03T08:17:43.892Z,2.67
2022-08-03T08:20:11.805Z,2.65
2022-08-03T08:22:38.601Z,2.80
2022-08-03T08:25:07.542Z,3.03
2022-08-03T08:28:25.302Z,3.03
2022-08-03T08:30:27.741Z,2.90
2022-08-03T08:32:56.252Z,2.90
2022-08-03T08:35:23.341Z,2.67
2022-08-03T08:37:51.029Z,2.70
2022-08-03T08:40:20.929Z,2.63
2022-08-03T08:42:57.865Z,2.72
2022-08-03T08:45:25.384Z,2.63
2022-08-03T08:47:55.682Z,2.30
2022-08-03T08:50:27.814Z,2.33
2022-08-03T08:52:55.578Z,2.85
2022-08-03T08:55:23.253Z,2.90
2022-08-03T08:57:52.503Z,2.80
2022-08-03T09:00:19.439Z,2.55
2022-08-03T09:02:46.692Z,2.65
2022-08-03T09:05:14.638Z,3.10
2022-08-03T09:07:42.344Z,2.85
2022-08-03T09:10:12.692Z,2.70
2022-08-03T09:12:44.558Z,3.08
2022-08-03T09:15:21.739Z,2.72
2022-08-03T09:17:51.322Z,2.83
2022-08-03T09:20:19.516Z,2.75
2022-08-03T09:22:53.654Z,2.80
2022-08-03T09:25:26.342Z,3.50
2022-08-03T09:27:53.465Z,2.40
2022-08-03T09:30:33.244Z,2.85
2022-08-03T09:33:02.576Z,2.97
2022-08-03T09:35:53.653Z,2.65
2022-08-03T09:38:17.679Z,2.47
2022-08-03T09:40:45.392Z,2.70
2022-08-03T09:43:12.466Z,2.40
2022-08-03T09:45:40.211Z,2.60
2022-08-03T09:48:22.230Z,2.80
2022-08-03T09:50:57.020Z,2.67
2022-08-03T09:53:59.191Z,2.63
2022-08-03T09:56:46.859Z,2.42
2022-08-03T09:59:22.655Z,2.10
2022-08-03T10:01:49.653Z,2.10
2022-08-03T10:04:19.718Z,1.90
2022-08-03T10:07:01.783Z,1.90
2022-08-03T10:09:31.258Z,1.80
2022-08-03T10:12:05.740Z,1.92
2022-08-03T10:14:32.768Z,2.15
2022-08-03T10:16:59.647Z,2.40
2022-08-03T10:19:26.641Z,2.00
2022-08-03T10:21:55.093Z,2.08
2022-08-03T10:24:25.070Z,2.03
2022-08-03T10:26:52.739Z,1.95
2022-08-03T10:29:22.122Z,1.90
2022-08-03T10:31:54.471Z,1.90
2022-08-03T10:34:27.120Z,1.92
2022-08-03T10:36:56.992Z,2.10
2022-08-03T10:39:27.527Z,2.05
2022-08-03T10:41:55.311Z,2.05
2022-08-03T10:44:24.512Z,1.90
2022-08-03T10:46:51.449Z,1.80
2022-08-03T10:49:33.756Z,1.85
2022-08-03T10:52:06.599Z,1.50
2022-08-03T10:54:59.831Z,1.70
2022-08-03T10:57:45.844Z,1.70
2022-08-03T11:00:16.240Z,1.80
2022-08-03T11:03:01.535Z,1.50
2022-08-03T11:05:29.546Z,1.65
2022-08-03T11:08:14.980Z,1.50
2022-08-03T11:10:41.800Z,1.60
2022-08-03T11:13:10.902Z,1.40
2022-08-03T11:15:38.910Z,1.42
2022-08-03T11:18:11.218Z,1.50
2022-08-03T11:20:55.119Z,1.40
2022-08-03T11:24:04.835Z,1.73
2022-08-03T11:26:28.941Z,1.50
2022-08-03T11:29:15.779Z,1.52
2022-08-03T11:31:51.474Z,1.63
2022-08-03T11:34:18.784Z,1.60
2022-08-03T11:37:04.431Z,1.45
2022-08-03T11:39:40.605Z,1.48
2022-08-03T11:42:22.913Z,1.60
2022-08-03T11:44:50.246Z,1.30
2022-08-03T11:47:18.082Z,1.15
2022-08-03T11:49:48.978Z,1.60
2022-08-03T11:52:19.491Z,1.42
2022-08-03T11:54:56.472Z,1.70
2022-08-03T11:59:17.420Z,1.38
2022-08-03T12:00:28.464Z,1.58
2022-08-03T12:03:05.519Z,1.48
2022-08-03T12:05:36.585Z,1.70
2022-08-03T12:08:06.666Z,1.38
2022-08-03T12:10:34.769Z,1.25
2022-08-03T12:13:02.635Z,1.40
2022-08-03T12:15:30.506Z,1.50
2022-08-03T12:17:58.199Z,1.40
2022-08-03T12:20:34.549Z,1.58
2022-08-03T12:23:03.804Z,1.67
2022-08-03T12:25:38.898Z,1.42
2022-08-03T12:28:35.957Z,1.25
2022-08-03T12:31:01.372Z,1.38
2022-08-03T12:33:28.382Z,1.30
2022-08-03T12:36:10.965Z,1.38
2022-08-03T12:38:39.438Z,1.35
2022-08-03T12:41:08.513Z,1.40
2022-08-03T12:43:39.413Z,1.63
2022-08-03T12:46:07.312Z,1.40
2022-08-03T12:48:34.171Z,1.35
2022-08-03T12:51:10.251Z,1.40
2022-08-03T12:53:37.338Z,1.35
2022-08-03T12:56:06.286Z,1.80
2022-08-03T12:58:35.187Z,1.50
2022-08-03T13:01:05.086Z,1.52
2022-08-03T13:03:46.051Z,1.67
2022-08-03T13:06:21.481Z,1.58
2022-08-03T13:08:48.851Z,1.27
2022-08-03T13:11:21.899Z,1.10
2022-08-03T13:13:49.494Z,1.40
2022-08-03T13:16:19.318Z,1.70
2022-08-03T13:18:49.187Z,1.40
2022-08-03T13:21:16.328Z,1.40
2022-08-03T13:23:43.520Z,1.23
2022-08-03T13:26:11.015Z,1.30
2022-08-03T13:28:38.307Z,1.23
2022-08-03T13:31:06.568Z,1.20
2022-08-03T13:33:34.002Z,1.23
2022-08-03T13:36:01.025Z,1.60
2022-08-03T13:38:27.964Z,1.30
2022-08-03T13:40:55.458Z,1.30
2022-08-03T13:43:23.417Z,1.40
2022-08-03T13:45:54.827Z,1.35
2022-08-03T13:48:35.963Z,1.20
2022-08-03T13:51:21.811Z,1.20
2022-08-03T13:53:50.899Z,1.48
2022-08-03T13:56:18.251Z,1.20
2022-08-03T13:58:45.202Z,1.20
2022-08-03T14:01:12.257Z,1.35
2022-08-03T14:03:39.031Z,1.45
2022-08-03T14:06:05.819Z,1.40
2022-08-03T14:08:32.712Z,1.20
2022-08-03T14:10:59.540Z,1.35
2022-08-03T14:13:26.431Z,1.20
2022-08-03T14:15:55.533Z,1.55
2022-08-03T14:18:29.307Z,1.40
2022-08-03T14:21:06.928Z,1.33
2022-08-03T14:23:34.935Z,1.70
2022-08-03T14:26:01.821Z,1.50
2022-08-03T14:28:28.926Z,1.42
2022-08-03T14:30:58.754Z,1.38
2022-08-03T14:33:25.562Z,1.10
2022-08-03T14:35:53.459Z,1.15
2022-08-03T14:38:20.719Z,1.60
2022-08-03T14:40:47.771Z,1.30
2022-08-03T14:43:15.302Z,1.00
2022-08-03T14:45:42.633Z,1.60
2022-08-03T14:50:33.886Z,1.40
2022-08-03T14:50:56.806Z,1.50
2022-08-03T14:53:24.104Z,1.30
2022-08-03T14:55:52.781Z,1.20
2022-08-03T14:58:21.536Z,1.50
2022-08-03T15:00:49.139Z,1.20
2022-08-03T15:03:17.121Z,1.08
2022-08-03T15:05:44.357Z,1.40
2022-08-03T15:08:11.228Z,1.70
2022-08-03T15:10:44.623Z,1.20
2022-08-03T15:13:12.854Z,1.35
2022-08-03T15:15:39.852Z,1.13
2022-08-03T15:18:06.631Z,1.35
2022-08-03T15:20:43.793Z,1.23
2022-08-03T15:23:11.878Z,1.33
2022-08-03T15:26:29.035Z,1.20
2022-08-03T15:28:25.682Z,1.20
2022-08-03T15:30:52.976Z,1.10
2022-08-03T15:33:20.092Z,1.30
2022-08-03T15:35:47.604Z,1.50
2022-08-03T15:38:14.699Z,1.27
2022-08-03T15:40:41.728Z,1.35
2022-08-03T15:43:08.662Z,1.13
2022-08-03T15:45:36.509Z,1.27
2022-08-03T15:48:06.564Z,1.50
2022-08-03T15:50:33.346Z,1.17
2022-08-03T15:53:00.259Z,1.50
2022-08-03T15:55:27.681Z,1.45
2022-08-03T15:59:03.987Z,1.65
2022-08-03T16:00:42.786Z,1.30
2022-08-03T16:03:10.152Z,1.40
2022-08-03T16:05:37.394Z,1.60
2022-08-03T16:08:06.306Z,1.48
2022-08-03T16:10:35.933Z,1.27
2022-08-03T16:13:02.814Z,1.30
2022-08-03T16:15:29.734Z,1.00
2022-08-03T16:17:56.616Z,1.33
2022-08-03T16:20:31.073Z,1.50
2022-08-03T16:23:08.517Z,1.27
2022-08-03T16:25:38.291Z,1.50
2022-08-03T16:28:08.060Z,1.50
2022-08-03T16:30:40.714Z,1.30
2022-08-03T16:33:07.577Z,1.40
2022-08-03T16:35:35.520Z,1.33
2022-08-03T16:38:06.529Z,1.40
2022-08-03T16:40:36.364Z,1.20
2022-08-03T16:43:10.602Z,1.58
2022-08-03T16:45:49.448Z,1.45
2022-08-03T16:48:17.206Z,1.30
2022-08-03T16:50:44.527Z,1.40
2022-08-03T16:53:15.655Z,1.52
2022-08-03T16:55:53.097Z,1.30
2022-08-03T16:58:24.403Z,1.40
2022-08-03T17:01:21.033Z,1.27
2022-08-03T17:04:01.680Z,1.25
2022-08-03T17:06:34.552Z,1.70
2022-08-03T17:09:03.339Z,1.38
2022-08-03T17:11:32.102Z,1.33
2022-08-03T17:14:00.128Z,1.48
2022-08-03T17:16:27.262Z,1.60
2022-08-03T17:19:02.238Z,1.35
2022-08-03T17:21:32.403Z,1.30
2022-08-03T17:23:59.898Z,1.23
2022-08-03T17:26:30.587Z,1.48
2022-08-03T17:28:59.587Z,1.45
2022-08-03T17:31:31.199Z,2.30
2022-08-03T17:34:00.432Z,1.50
2022-08-03T17:36:47.604Z,1.55
2022-08-03T17:39:16.680Z,1.85
2022-08-03T17:41:48.946Z,2.13
2022-08-03T17:44:31.079Z,1.90
2022-08-03T17:47:02.137Z,1.80
2022-08-03T17:49:29.182Z,1.25
2022-08-03T17:52:06.111Z,1.50
2022-08-03T17:55:56.992Z,1.33
2022-08-03T17:58:02.088Z,2.10
2022-08-03T18:00:51.701Z,2.85
2022-08-03T18:03:22.380Z,1.90
2022-08-03T18:06:10.561Z,2.37
2022-08-03T18:08:43.178Z,2.08
2022-08-03T18:11:15.203Z,1.95
2022-08-03T18:13:53.411Z,2.03
2022-08-03T18:16:29.677Z,1.35
2022-08-03T18:18:59.250Z,1.30
2022-08-03T18:21:28.065Z,1.60
2022-08-03T18:24:15.150Z,1.90
2022-08-03T18:26:42.751Z,1.80
2022-08-03T18:29:15.609Z,1.58
2022-08-03T18:32:03.393Z,1.83
2022-08-03T18:34:33.757Z,1.60
2022-08-03T18:37:04.389Z,1.98
2022-08-03T18:39:39.063Z,1.83
2022-08-03T18:42:19.372Z,2.00
2022-08-03T18:44:54.388Z,2.13
2022-08-03T18:47:50.654Z,2.03
2022-08-03T18:50:37.129Z,2.30
2022-08-03T18:53:19.662Z,2.07
2022-08-03T18:56:01.399Z,2.67
2022-08-03T18:58:34.811Z,2.40
2022-08-03T19:02:00.340Z,2.20
2022-08-03T19:04:09.083Z,2.17
2022-08-03T19:06:39.192Z,2.37
2022-08-03T19:09:09.478Z,3.03
2022-08-03T19:12:12.431Z,3.00
2022-08-03T19:14:31.645Z,2.97
2022-08-03T19:17:04.741Z,2.53
2022-08-03T19:19:43.628Z,2.67
2022-08-03T19:22:12.738Z,2.60
2022-08-03T19:24:45.220Z,2.63
2022-08-03T19:27:13.412Z,2.77
2022-08-03T19:29:59.174Z,2.70
2022-08-03T19:32:31.297Z,3.03
2022-08-03T19:34:59.485Z,2.47
2022-08-03T19:37:38.075Z,2.70
2022-08-03T19:40:10.925Z,2.90
2022-08-03T19:42:40.613Z,2.70
2022-08-03T19:45:11.094Z,2.60
2022-08-03T19:47:45.119Z,2.77
2022-08-03T19:50:14.371Z,2.97
2022-08-03T19:52:43.757Z,2.57
2022-08-03T19:55:12.308Z,2.20
2022-08-03T19:57:40.972Z,2.30
2022-08-03T20:00:11.692Z,2.50
2022-08-03T20:02:39.682Z,2.63
2022-08-03T20:05:14.831Z,2.60
2022-08-03T20:07:47.521Z,3.00
2022-08-03T20:10:16.109Z,2.60
2022-08-03T20:12:44.038Z,2.60
2022-08-03T20:15:11.174Z,2.67
2022-08-03T20:17:56.418Z,2.50
2022-08-03T20:20:33.105Z,2.30
2022-08-03T20:23:00.845Z,2.37
2022-08-03T20:25:37.959Z,2.23
2022-08-03T20:28:17.419Z,2.20
2022-08-03T20:33:45.909Z,2.50
2022-08-03T20:36:18.071Z,1.97
2022-08-03T20:38:46.944Z,2.50
2022-08-03T20:41:14.958Z,2.13
2022-08-03T20:43:41.812Z,2.10
2022-08-03T20:46:31.718Z,2.23
2022-08-03T20:48:58.709Z,2.00
2022-08-03T20:51:27.097Z,2.30
2022-08-03T20:54:28.680Z,2.40
2022-08-03T20:56:57.770Z,2.10
2022-08-03T20:59:33.619Z,2.40
2022-08-03T21:02:05.703Z,2.47
2022-08-03T21:04:32.525Z,2.17
2022-08-03T21:07:09.818Z,2.30
2022-08-03T21:09:52.089Z,2.30
2022-08-03T21:12:21.817Z,2.30
2022-08-03T21:13:07.090Z,2.27
2022-08-03T21:15:02.958Z,2.27
2022-08-03T21:17:41.542Z,1.90
2022-08-03T21:20:09.785Z,2.20
2022-08-03T21:22:42.928Z,2.20
2022-08-03T21:25:10.275Z,1.70
2022-08-03T21:27:37.254Z,2.17
2022-08-03T21:30:06.375Z,1.83
2022-08-03T21:32:33.557Z,2.30
2022-08-03T21:35:00.553Z,2.00
2022-08-03T21:37:28.298Z,1.77
2022-08-03T21:39:55.694Z,2.20
2022-08-03T21:42:25.631Z,1.77
2022-08-03T21:44:52.804Z,2.13
2022-08-03T21:47:22.050Z,2.00
2022-08-03T21:50:06.359Z,2.03
2022-08-03T21:52:40.564Z,2.10
2022-08-03T21:55:07.611Z,2.43
2022-08-03T21:57:34.874Z,2.10
2022-08-03T22:00:12.156Z,2.20
2022-08-03T22:02:44.723Z,2.10
2022-08-03T22:05:20.027Z,2.07
2022-08-03T22:07:56.640Z,2.27
2022-08-03T22:10:24.411Z,2.30
2022-08-03T22:12:51.147Z,2.47
2022-08-03T22:15:18.046Z,2.13
2022-08-03T22:17:55.653Z,2.93
2022-08-03T22:20:24.293Z,2.80
2022-08-03T22:22:55.782Z,2.67
2022-08-03T22:25:29.015Z,2.53
2022-08-03T22:27:57.276Z,2.67
2022-08-03T22:30:25.199Z,2.83
2022-08-03T22:32:53.011Z,2.33
2022-08-03T22:35:20.754Z,2.33
2022-08-03T22:37:52.353Z,2.57
2022-08-03T22:40:19.559Z,3.00
2022-08-03T22:42:49.319Z,2.30
2022-08-03T22:46:07.190Z,2.63
2022-08-03T22:48:07.269Z,2.67
2022-08-03T22:50:34.563Z,2.40
2022-08-03T22:53:01.406Z,2.50
2022-08-03T22:55:28.637Z,2.83
2022-08-03T22:57:55.752Z,2.20
2022-08-03T23:00:23.382Z,2.90
2022-08-03T23:02:50.998Z,2.50
2022-08-03T23:06:00.476Z,2.40
2022-08-03T23:08:08.542Z,2.30
2022-08-03T23:10:36.137Z,2.50
2022-08-03T23:13:03.203Z,2.50
2022-08-03T23:15:30.443Z,2.53
2022-08-03T23:18:01.351Z,2.27
2022-08-03T23:20:28.930Z,2.10
2022-08-03T23:22:57.703Z,2.47
2022-08-03T23:25:24.816Z,2.67
2022-08-03T23:28:05.500Z,2.90
2022-08-03T23:30:34.356Z,2.80
2022-08-03T23:33:02.059Z,2.87
2022-08-03T23:36:29.420Z,3.07
2022-08-03T23:38:35.503Z,2.23
2022-08-03T23:41:03.165Z,2.20
2022-08-03T23:43:51.217Z,2.77
2022-08-03T23:46:19.659Z,2.60
2022-08-03T23:48:46.416Z,2.67
2022-08-03T23:51:18.035Z,2.30
2022-08-03T23:53:51.391Z,2.47
2022-08-03T23:56:30.747Z,2.30
2022-08-03T23:59:01.062Z,2.47
